Rachele Brusco — WDC3067 — position and weather

sailwx.info

Track history (hours):
 
Tides and Currents Weather Stations Pressure Air Temp Water Temp Dewpoint Dewpoint Depression Visibility Wind Speed Wind Dir Waves Ship Positions

Rachele Brusco

Owner: Brusco Tug & Barge, Inc., Longview, WA. More information available from US FCC via Universal Licensing System and Coast Guard Vessel Documentation Center.

Last reported at 2018-Jul-22 12:43 UTC. Time now 2018-Jul-23 00:17 UTC.
Position N 46°55' W 124°06'.

Length 29 m; draft 4.5 m.

Type: Towing. MMSI: 367002210.

Date/timePositionNaut miles runAvg speedWind from/ knotsBaromVisibWave heightAir tempDewpointWater temp
2018-Jul-22 12:43N 46°55' W 124°06'0 0.1
2018-Jul-22 07:10N 46°55' W 124°06'1 1.5
2018-Jul-22 06:46N 46°55' W 124°06'1 2.6
2018-Jul-22 06:30N 46°55' W 124°08'1 0.1
2018-Jul-21 18:09N 46°55' W 124°09'0 1.6
2018-Jul-21 17:53N 46°55' W 124°08'0 0.0
2018-Jul-20 13:18N 46°55' W 124°08'1 2.7
2018-Jul-20 13:00N 46°54' W 124°09'1 0.1
2018-Jul-20 02:24N 46°55' W 124°08'5 3.3
2018-Jul-20 00:51N 46°56' W 124°01'6 1.7
2018-Jul-19 21:31N 46°55' W 124°09'0 6.8
2018-Jul-19 21:30N 46°55' W 124°09'0 0.0
2018-Jul-19 13:54N 46°55' W 124°08'0 0.0
2018-Jul-18 23:55N 46°55' W 124°08'5 2.7
2018-Jul-18 22:10N 46°56' W 124°01'5 0.1
2018-Jul-17 12:24N 46°58' W 123°55'2 3.2
2018-Jul-17 11:48N 46°58' W 123°57'3 3.5
2018-Jul-17 10:52N 46°56' W 124°01'3 5.4
2018-Jul-17 10:13N 46°55' W 124°06'1 6.1
2018-Jul-17 10:00N 46°55' W 124°08'0 0.6
2018-Jul-17 09:30N 46°55' W 124°08'4 3.2
2018-Jul-17 08:07N 46°56' W 124°02'1 3.3
2018-Jul-17 07:52N 46°56' W 124°01'4 4.1
2018-Jul-17 06:50N 46°58' W 123°55'2 3.3
2018-Jul-17 06:17N 46°58' W 123°53'1 0.3
2018-Jul-17 03:50N 46°58' W 123°54'5 5.7
2018-Jul-17 02:53N 46°56' W 124°01'2 2.9
2018-Jul-17 02:20N 46°55' W 124°03'2 5.7
2018-Jul-17 02:00N 46°55' W 124°06'2 4.3
2018-Jul-17 01:30N 46°55' W 124°09'2 3.7
2018-Jul-17 01:00N 46°55' W 124°06'3 6.5
2018-Jul-17 00:30N 46°56' W 124°01'  
2018-Jul-14 04:11N 46°55' W 124°09'211.0
2018-Jul-14 03:58N 46°54' W 124°12'510.6
2018-Jul-14 03:27N 46°48' W 124°14'410.3
2018-Jul-14 03:00N 46°44' W 124°14'5 9.8
2018-Jul-14 02:30N 46°39' W 124°13'5 9.7
2018-Jul-14 02:00N 46°34' W 124°13'5 9.6
2018-Jul-14 01:30N 46°29' W 124°13'5 9.7
2018-Jul-14 01:00N 46°25' W 124°13'510.0
2018-Jul-14 00:30N 46°20' W 124°12'6 9.4
2018-Jul-13 23:49N 46°15' W 124°06'411.4
2018-Jul-13 23:30N 46°15' W 124°01'611.8
2018-Jul-13 23:00N 46°11' W 123°54'510.6
2018-Jul-13 22:30N 46°13' W 123°47'510.0
2018-Jul-13 22:00N 46°15' W 123°40'5 9.4
2018-Jul-13 21:30N 46°15' W 123°34'5 9.0
2018-Jul-13 21:00N 46°15' W 123°27'4 5.3
2018-Jul-13 20:11N 46°12' W 123°23'0 0.0
2018-Jul-13 19:56N 46°12' W 123°23'0 0.0
2018-Jul-13 19:23N 46°12' W 123°23'0 0.0
2018-Jul-13 18:59N 46°12' W 123°23'0 0.0
2018-Jul-13 18:30N 46°12' W 123°23'0 0.0
2018-Jul-13 18:00N 46°12' W 123°23'0 0.0
2018-Jul-13 17:30N 46°12' W 123°23'0 0.0
2018-Jul-13 16:57N 46°12' W 123°23'0 0.0
2018-Jul-13 16:30N 46°12' W 123°23'0 0.0
2018-Jul-13 16:00N 46°12' W 123°23'0 0.0
2018-Jul-13 15:30N 46°12' W 123°23'0 0.0
2018-Jul-13 14:54N 46°12' W 123°23'0 0.0
2018-Jul-13 14:24N 46°12' W 123°23'0 0.0
2018-Jul-13 13:30N 46°12' W 123°23'0 0.0
2018-Jul-13 13:00N 46°12' W 123°23'0 0.0
2018-Jul-13 12:30N 46°12' W 123°23'0 0.0
2018-Jul-13 11:57N 46°12' W 123°23'0 0.0
2018-Jul-13 11:30N 46°12' W 123°23'0 0.0
2018-Jul-13 10:54N 46°12' W 123°23'0 0.0
2018-Jul-13 10:27N 46°12' W 123°23'0 0.0
2018-Jul-13 09:57N 46°12' W 123°23'0 0.0
2018-Jul-13 09:27N 46°12' W 123°23'0 0.0
2018-Jul-13 09:00N 46°12' W 123°23'0 0.0
2018-Jul-13 08:30N 46°12' W 123°23'0 0.0
2018-Jul-13 08:00N 46°12' W 123°23'0 0.0
2018-Jul-13 07:30N 46°12' W 123°23'0 0.0
2018-Jul-13 06:54N 46°12' W 123°23'0 0.0
2018-Jul-13 06:29N 46°12' W 123°23'0 0.0
2018-Jul-13 05:59N 46°12' W 123°23'0 0.0
2018-Jul-13 05:29N 46°12' W 123°23'0 0.0
2018-Jul-13 05:00N 46°12' W 123°23'0 0.0
2018-Jul-13 04:30N 46°12' W 123°23'0 0.0
2018-Jul-13 03:59N 46°12' W 123°23'0 0.0
2018-Jul-13 03:29N 46°12' W 123°23'0 0.0
2018-Jul-13 03:00N 46°12' W 123°23'0 0.0
2018-Jul-13 02:29N 46°12' W 123°23'0 0.0
2018-Jul-13 01:57N 46°12' W 123°23'0 0.0
2018-Jul-13 01:30N 46°12' W 123°23'0 0.0
2018-Jul-13 01:00N 46°12' W 123°23'0 0.0
2018-Jul-13 00:17N 46°12' W 123°23'0 0.0
2018-Jul-13 00:00N 46°12' W 123°23'0 0.0
2018-Jul-12 23:24N 46°12' W 123°23'0 0.0
2018-Jul-12 23:00N 46°12' W 123°23'0 0.0
2018-Jul-12 22:27N 46°12' W 123°23'0 0.0
2018-Jul-12 22:00N 46°12' W 123°23'0 0.0
2018-Jul-12 21:30N 46°12' W 123°23'1 3.0
2018-Jul-12 21:00N 46°13' W 123°25'1 3.0
2018-Jul-12 20:31N 46°12' W 123°23'0 0.0
2018-Jul-12 19:25N 46°12' W 123°23'0 0.0
2018-Jul-12 18:58N 46°12' W 123°23'0 0.0
2018-Jul-12 18:25N 46°12' W 123°23'0 0.0
2018-Jul-12 17:55N 46°12' W 123°23'0 0.0
2018-Jul-12 17:19N 46°12' W 123°23'0 0.0
2018-Jul-12 16:49N 46°12' W 123°23'0 0.0
2018-Jul-12 16:28N 46°12' W 123°23'0 0.0
2018-Jul-12 15:55N 46°12' W 123°23'0 0.0
2018-Jul-12 15:22N 46°12' W 123°23'0 0.0
2018-Jul-12 14:55N 46°12' W 123°23'0 0.0
2018-Jul-12 14:28N 46°12' W 123°23'0 0.0
2018-Jul-12 13:58N 46°12' W 123°23'0 0.0
2018-Jul-12 13:28N 46°12' W 123°23'0 0.0
2018-Jul-12 12:55N 46°12' W 123°23'  
Track history (hours):
 
Tides and Currents Weather Stations Pressure Air Temp Water Temp Dewpoint Dewpoint Depression Visibility Wind Speed Wind Dir Waves Ship Positions

Rachele Brusco

Owner: Brusco Tug & Barge, Inc., Longview, WA. More information available from US FCC via Universal Licensing System and Coast Guard Vessel Documentation Center.

Last reported at 2018-Jul-22 12:43 UTC. Time now 2018-Jul-23 00:18 UTC.
Position N 46°55' W 124°06'.

Length 29 m; draft 4.5 m.

Type: Towing. MMSI: 367002210.

Date/timePositionNaut miles runAvg speedWind from/ knotsBaromVisibWave heightAir tempDewpointWater temp
2018-Jul-22 12:43N 46°55' W 124°06'0 0.1
2018-Jul-22 07:10N 46°55' W 124°06'1 1.5
2018-Jul-22 06:46N 46°55' W 124°06'1 2.6
2018-Jul-22 06:30N 46°55' W 124°08'1 0.1
2018-Jul-21 18:09N 46°55' W 124°09'0 1.6
2018-Jul-21 17:53N 46°55' W 124°08'0 0.0
2018-Jul-20 13:18N 46°55' W 124°08'1 2.7
2018-Jul-20 13:00N 46°54' W 124°09'1 0.1
2018-Jul-20 02:24N 46°55' W 124°08'5 3.3
2018-Jul-20 00:51N 46°56' W 124°01'6 1.7
2018-Jul-19 21:31N 46°55' W 124°09'0 6.8
2018-Jul-19 21:30N 46°55' W 124°09'0 0.0
2018-Jul-19 13:54N 46°55' W 124°08'0 0.0
2018-Jul-18 23:55N 46°55' W 124°08'5 2.7
2018-Jul-18 22:10N 46°56' W 124°01'5 0.1
2018-Jul-17 12:24N 46°58' W 123°55'2 3.2
2018-Jul-17 11:48N 46°58' W 123°57'3 3.5
2018-Jul-17 10:52N 46°56' W 124°01'3 5.4
2018-Jul-17 10:13N 46°55' W 124°06'1 6.1
2018-Jul-17 10:00N 46°55' W 124°08'0 0.6
2018-Jul-17 09:30N 46°55' W 124°08'4 3.2
2018-Jul-17 08:07N 46°56' W 124°02'1 3.3
2018-Jul-17 07:52N 46°56' W 124°01'4 4.1
2018-Jul-17 06:50N 46°58' W 123°55'2 3.3
2018-Jul-17 06:17N 46°58' W 123°53'1 0.3
2018-Jul-17 03:50N 46°58' W 123°54'5 5.7
2018-Jul-17 02:53N 46°56' W 124°01'2 2.9
2018-Jul-17 02:20N 46°55' W 124°03'2 5.7
2018-Jul-17 02:00N 46°55' W 124°06'2 4.3
2018-Jul-17 01:30N 46°55' W 124°09'2 3.7
2018-Jul-17 01:00N 46°55' W 124°06'3 6.5
2018-Jul-17 00:30N 46°56' W 124°01'  
2018-Jul-14 04:11N 46°55' W 124°09'211.0
2018-Jul-14 03:58N 46°54' W 124°12'510.6
2018-Jul-14 03:27N 46°48' W 124°14'410.3
2018-Jul-14 03:00N 46°44' W 124°14'5 9.8
2018-Jul-14 02:30N 46°39' W 124°13'5 9.7
2018-Jul-14 02:00N 46°34' W 124°13'5 9.6
2018-Jul-14 01:30N 46°29' W 124°13'5 9.7
2018-Jul-14 01:00N 46°25' W 124°13'510.0
2018-Jul-14 00:30N 46°20' W 124°12'6 9.4
2018-Jul-13 23:49N 46°15' W 124°06'411.4
2018-Jul-13 23:30N 46°15' W 124°01'611.8
2018-Jul-13 23:00N 46°11' W 123°54'510.6
2018-Jul-13 22:30N 46°13' W 123°47'510.0
2018-Jul-13 22:00N 46°15' W 123°40'5 9.4
2018-Jul-13 21:30N 46°15' W 123°34'5 9.0
2018-Jul-13 21:00N 46°15' W 123°27'4 5.3
2018-Jul-13 20:11N 46°12' W 123°23'0 0.0
2018-Jul-13 19:56N 46°12' W 123°23'0 0.0
2018-Jul-13 19:23N 46°12' W 123°23'0 0.0
2018-Jul-13 18:59N 46°12' W 123°23'0 0.0
2018-Jul-13 18:30N 46°12' W 123°23'0 0.0
2018-Jul-13 18:00N 46°12' W 123°23'0 0.0
2018-Jul-13 17:30N 46°12' W 123°23'0 0.0
2018-Jul-13 16:57N 46°12' W 123°23'0 0.0
2018-Jul-13 16:30N 46°12' W 123°23'0 0.0
2018-Jul-13 16:00N 46°12' W 123°23'0 0.0
2018-Jul-13 15:30N 46°12' W 123°23'0 0.0
2018-Jul-13 14:54N 46°12' W 123°23'0 0.0
2018-Jul-13 14:24N 46°12' W 123°23'0 0.0
2018-Jul-13 13:30N 46°12' W 123°23'0 0.0
2018-Jul-13 13:00N 46°12' W 123°23'0 0.0
2018-Jul-13 12:30N 46°12' W 123°23'0 0.0
2018-Jul-13 11:57N 46°12' W 123°23'0 0.0
2018-Jul-13 11:30N 46°12' W 123°23'0 0.0
2018-Jul-13 10:54N 46°12' W 123°23'0 0.0
2018-Jul-13 10:27N 46°12' W 123°23'0 0.0
2018-Jul-13 09:57N 46°12' W 123°23'0 0.0
2018-Jul-13 09:27N 46°12' W 123°23'0 0.0
2018-Jul-13 09:00N 46°12' W 123°23'0 0.0
2018-Jul-13 08:30N 46°12' W 123°23'0 0.0
2018-Jul-13 08:00N 46°12' W 123°23'0 0.0
2018-Jul-13 07:30N 46°12' W 123°23'0 0.0
2018-Jul-13 06:54N 46°12' W 123°23'0 0.0
2018-Jul-13 06:29N 46°12' W 123°23'0 0.0
2018-Jul-13 05:59N 46°12' W 123°23'0 0.0
2018-Jul-13 05:29N 46°12' W 123°23'0 0.0
2018-Jul-13 05:00N 46°12' W 123°23'0 0.0
2018-Jul-13 04:30N 46°12' W 123°23'0 0.0
2018-Jul-13 03:59N 46°12' W 123°23'0 0.0
2018-Jul-13 03:29N 46°12' W 123°23'0 0.0
2018-Jul-13 03:00N 46°12' W 123°23'0 0.0
2018-Jul-13 02:29N 46°12' W 123°23'0 0.0
2018-Jul-13 01:57N 46°12' W 123°23'0 0.0
2018-Jul-13 01:30N 46°12' W 123°23'0 0.0
2018-Jul-13 01:00N 46°12' W 123°23'0 0.0
2018-Jul-13 00:17N 46°12' W 123°23'0 0.0
2018-Jul-13 00:00N 46°12' W 123°23'0 0.0
2018-Jul-12 23:24N 46°12' W 123°23'0 0.0
2018-Jul-12 23:00N 46°12' W 123°23'0 0.0
2018-Jul-12 22:27N 46°12' W 123°23'0 0.0
2018-Jul-12 22:00N 46°12' W 123°23'0 0.0
2018-Jul-12 21:30N 46°12' W 123°23'1 3.0
2018-Jul-12 21:00N 46°13' W 123°25'1 3.0
2018-Jul-12 20:31N 46°12' W 123°23'0 0.0
2018-Jul-12 19:25N 46°12' W 123°23'0 0.0
2018-Jul-12 18:58N 46°12' W 123°23'0 0.0
2018-Jul-12 18:25N 46°12' W 123°23'0 0.0
2018-Jul-12 17:55N 46°12' W 123°23'0 0.0
2018-Jul-12 17:19N 46°12' W 123°23'0 0.0
2018-Jul-12 16:49N 46°12' W 123°23'0 0.0
2018-Jul-12 16:28N 46°12' W 123°23'0 0.0
2018-Jul-12 15:55N 46°12' W 123°23'0 0.0
2018-Jul-12 15:22N 46°12' W 123°23'0 0.0
2018-Jul-12 14:55N 46°12' W 123°23'0 0.0
2018-Jul-12 14:28N 46°12' W 123°23'0 0.0
2018-Jul-12 13:58N 46°12' W 123°23'0 0.0
2018-Jul-12 13:28N 46°12' W 123°23'0 0.0
2018-Jul-12 12:55N 46°12' W 123°23'  

Dump ship's entire track history